Adrian, Illinois
Current Conditions -  °F | °C
As of 5:35 PM on Friday 31 Oct 2014 (Local Time) from KFSW Reporting Station
Clear Clear  
Wind Chill: 37°   Ceiling: Unl
Heat Index: 43°   Visibility: 10mi
Dew Point: 21°   Wind: 10mph
Humidity: 42%   Direction: 350°N
Pressure: 30.39"   Gusts: 18mph
Location:  40.52°N, 91.17°W
Report Text: KFSW 312235Z AUTO 35009G16KT 10SM CLR 06/M06 A3039 RMK AO2
Loading
Personal Weather Stations






























Interactive Weather Map
Tropical Storm Tracking
New forecast layout! Learn more

10-Day Weather Forecast

Advertisements
Track Severe Weather on mobile